Time;durP1;ratioP1;P1;durP2;ratioP2;P2;SDS_P1;SDS_P2;PMS_P1;PMS_P2;Temp;Humidity;BMP_temperature;BMP_pressure;BME280_temperature;BME280_humidity;BME280_pressure;Samples;Min_cycle;Max_cycle;Signal;HPM_P1;HPM_P2
2021/05/11 00:00:29;;;;;;;4.30;1.42;;;16.00;72.40;;;;;;5066598;28;20385;-83
2021/05/11 00:02:55;;;;;;;7.40;2.15;;;16.00;72.50;;;;;;5052533;28;20052;-84
2021/05/11 00:05:21;;;;;;;4.05;1.80;;;16.00;72.40;;;;;;5053545;28;20039;-83
2021/05/11 00:07:46;;;;;;;8.10;2.63;;;15.90;73.00;;;;;;5052584;28;20080;-82
2021/05/11 00:10:12;;;;;;;8.93;3.03;;;15.90;73.00;;;;;;5052992;28;20021;-83
2021/05/11 00:12:38;;;;;;;6.95;2.38;;;15.90;73.40;;;;;;5054400;28;20028;-84
2021/05/11 00:15:05;;;;;;;11.32;2.60;;;15.90;73.60;;;;;;5053525;28;20064;-84
2021/05/11 00:17:30;;;;;;;9.27;2.58;;;15.90;74.00;;;;;;5053107;28;20022;-85
2021/05/11 00:19:58;;;;;;;10.68;2.72;;;15.80;74.30;;;;;;5053531;28;20019;-85
2021/05/11 00:22:24;;;;;;;5.07;2.03;;;15.80;74.40;;;;;;5054273;28;20033;-86
2021/05/11 00:24:49;;;;;;;7.53;2.70;;;15.70;74.40;;;;;;5053889;28;20021;-86
2021/05/11 00:27:15;;;;;;;9.45;3.30;;;15.70;74.20;;;;;;5053658;28;20125;-82
2021/05/11 00:29:40;;;;;;;10.90;3.20;;;15.70;74.50;;;;;;5054053;28;20029;-83
2021/05/11 00:32:06;;;;;;;9.75;2.60;;;15.70;74.70;;;;;;5054254;28;20052;-83
2021/05/11 00:34:32;;;;;;;9.13;3.45;;;15.70;75.00;;;;;;5056423;28;20041;-84
2021/05/11 00:36:57;;;;;;;7.53;3.10;;;15.60;74.70;;;;;;5057587;28;20029;-84
2021/05/11 00:39:23;;;;;;;12.35;3.08;;;15.60;74.90;;;;;;5059122;28;20032;-85
2021/05/11 00:41:48;;;;;;;9.25;3.08;;;15.60;75.00;;;;;;5056871;28;20389;-85
2021/05/11 00:44:19;;;;;;;13.00;3.03;;;15.60;75.30;;;;;;5057504;28;20059;-84
2021/05/11 00:46:53;;;;;;;9.23;3.97;;;15.50;75.20;;;;;;5056366;28;20032;-83
2021/05/11 00:49:19;;;;;;;9.20;3.75;;;15.50;75.60;;;;;;5057227;28;20025;-83
2021/05/11 00:51:45;;;;;;;11.90;4.45;;;15.40;76.20;;;;;;5056792;28;20021;-85
2021/05/11 00:54:11;;;;;;;9.68;2.65;;;15.40;76.40;;;;;;5056992;28;20029;-85
2021/05/11 00:56:37;;;;;;;10.88;4.00;;;15.30;76.00;;;;;;5057552;28;20090;-85
2021/05/11 00:59:05;;;;;;;9.35;3.72;;;15.30;76.40;;;;;;5057060;28;20025;-86
2021/05/11 01:01:31;;;;;;;9.77;4.13;;;15.30;76.50;;;;;;5058421;28;20040;-86
2021/05/11 01:03:57;;;;;;;11.52;4.22;;;15.30;77.40;;;;;;5059161;28;20105;-85
2021/05/11 01:06:22;;;;;;;16.05;4.68;;;15.30;77.20;;;;;;5074936;28;20028;-84
2021/05/11 01:08:48;;;;;;;12.88;4.22;;;15.20;77.90;;;;;;5075186;28;20557;-85
2021/05/11 01:11:13;;;;;;;6.72;2.97;;;15.10;78.00;;;;;;5068246;28;20024;-85
2021/05/11 01:13:39;;;;;;;10.07;4.95;;;15.10;77.80;;;;;;5062369;28;20025;-85
2021/05/11 01:16:05;;;;;;;10.45;4.20;;;15.10;78.50;;;;;;5056363;28;20079;-84
2021/05/11 01:18:33;;;;;;;14.75;5.47;;;15.10;78.50;;;;;;5056672;28;20017;-85
2021/05/11 01:21:13;;;;;;;14.20;5.25;;;15.10;78.90;;;;;;5056699;28;20056;-84
2021/05/11 01:24:03;;;;;;;12.20;4.72;;;15.10;79.10;;;;;;5056785;28;20388;-85
2021/05/11 01:26:57;;;;;;;12.27;5.63;;;15.10;79.10;;;;;;5055030;28;20056;-85
2021/05/11 01:55:46;;;;;;;12.45;5.20;;;14.70;81.90;;;;;;5078780;28;20033;-84
2021/05/11 02:22:53;;;;;;;13.30;7.25;;;14.70;82.20;;;;;;4975370;28;20597;-84
2021/05/11 02:25:19;;;;;;;11.40;5.90;;;14.70;82.30;;;;;;5013752;28;20055;-83
2021/05/11 02:27:45;;;;;;;13.23;6.22;;;14.70;82.20;;;;;;5059405;28;20025;-84
2021/05/11 02:30:11;;;;;;;11.48;5.72;;;14.70;82.20;;;;;;5055065;28;20013;-84
2021/05/11 02:32:39;;;;;;;10.43;5.88;;;14.70;82.40;;;;;;5056501;28;20040;-83
2021/05/11 02:35:06;;;;;;;15.85;6.72;;;14.70;82.50;;;;;;5053731;28;20048;-84
2021/05/11 02:37:31;;;;;;;12.57;6.60;;;14.70;82.70;;;;;;5054999;28;20087;-84
2021/05/11 02:39:57;;;;;;;12.95;6.28;;;14.70;82.50;;;;;;5053773;28;20377;-84
2021/05/11 02:42:23;;;;;;;13.48;6.30;;;14.70;82.60;;;;;;5053233;28;20024;-84
2021/05/11 02:44:49;;;;;;;13.88;6.97;;;14.70;82.60;;;;;;5054180;28;20056;-84
2021/05/11 02:47:14;;;;;;;10.50;6.18;;;14.80;82.60;;;;;;5054298;28;20028;-83
2021/05/11 02:49:45;;;;;;;13.10;6.10;;;14.80;82.80;;;;;;5054361;28;20017;-83
2021/05/11 02:52:12;;;;;;;13.65;6.25;;;14.70;82.70;;;;;;5054656;28;20029;-84
2021/05/11 02:54:37;;;;;;;10.68;6.60;;;14.80;82.80;;;;;;5054611;28;20071;-83
2021/05/11 02:57:04;;;;;;;10.93;6.15;;;14.70;83.60;;;;;;5054281;28;20025;-83
2021/05/11 02:59:30;;;;;;;15.32;7.40;;;14.70;83.20;;;;;;5054822;28;20047;-83
2021/05/11 03:01:56;;;;;;;17.83;7.88;;;14.70;83.30;;;;;;5055149;28;20025;-84
2021/05/11 03:04:22;;;;;;;12.50;6.68;;;14.80;83.50;;;;;;5063060;28;20120;-82
2021/05/11 03:06:47;;;;;;;13.48;6.53;;;14.70;83.50;;;;;;5057769;28;20053;-83
2021/05/11 03:09:13;;;;;;;14.85;7.20;;;14.70;83.60;;;;;;5056388;28;20028;-83
2021/05/11 03:11:39;;;;;;;12.48;6.97;;;14.70;83.60;;;;;;5062713;28;20020;-82
2021/05/11 03:14:05;;;;;;;15.30;7.40;;;14.70;83.90;;;;;;5068980;28;20449;-82
2021/05/11 03:16:34;;;;;;;16.40;8.43;;;14.70;84.10;;;;;;5066843;28;20036;-84
2021/05/11 03:18:59;;;;;;;13.68;7.75;;;14.70;84.70;;;;;;5067583;28;20020;-84
2021/05/11 03:21:25;;;;;;;15.82;7.70;;;14.70;84.20;;;;;;5061730;28;20476;-83
2021/05/11 03:23:51;;;;;;;15.40;7.50;;;14.70;84.30;;;;;;5056021;28;20021;-84
2021/05/11 03:26:16;;;;;;;15.90;7.93;;;14.70;84.30;;;;;;5052598;28;20110;-84
2021/05/11 03:28:42;;;;;;;18.30;7.30;;;14.60;84.50;;;;;;5054522;28;20100;-84
2021/05/11 03:31:08;;;;;;;16.42;8.10;;;14.70;84.60;;;;;;5053290;28;20116;-84
2021/05/11 03:33:33;;;;;;;13.73;7.15;;;14.70;84.90;;;;;;5055354;28;20017;-82
2021/05/11 03:35:59;;;;;;;13.13;6.97;;;14.70;84.70;;;;;;5071862;28;20021;-85
2021/05/11 03:38:27;;;;;;;15.05;7.63;;;14.70;84.60;;;;;;5075906;28;20028;-83
2021/05/11 03:40:54;;;;;;;13.75;6.97;;;14.70;84.80;;;;;;5073219;28;20030;-81
2021/05/11 03:43:49;;;;;;;13.85;7.72;;;14.70;85.00;;;;;;5062160;28;20088;-83
2021/05/11 03:46:09;;;;;;;12.75;5.68;;;14.70;84.80;;;;;;5058162;28;20056;-84
2021/05/11 03:48:34;;;;;;;11.43;7.53;;;14.80;84.30;;;;;;5055389;28;20057;-83
2021/05/11 03:51:05;;;;;;;11.50;6.22;;;14.70;83.90;;;;;;5053642;28;20056;-82
2021/05/11 03:53:32;;;;;;;13.88;6.50;;;14.80;83.80;;;;;;5057970;28;20468;-81
2021/05/11 03:55:58;;;;;;;14.30;6.93;;;14.70;83.70;;;;;;5076681;28;20021;-82
2021/05/11 03:58:24;;;;;;;15.60;7.00;;;14.80;83.70;;;;;;5073754;28;20017;-84
2021/05/11 04:00:49;;;;;;;9.65;5.57;;;14.80;83.60;;;;;;5076401;28;20085;-83
2021/05/11 04:03:15;;;;;;;16.00;7.35;;;14.80;83.60;;;;;;5071748;28;20036;-83
2021/05/11 04:05:41;;;;;;;11.27;5.60;;;14.80;83.90;;;;;;5054891;28;20129;-85
2021/05/11 04:08:06;;;;;;;11.00;6.38;;;14.80;83.60;;;;;;5056285;28;20439;-84
2021/05/11 04:10:38;;;;;;;9.27;5.18;;;14.80;82.80;;;;;;5057534;28;20017;-84
2021/05/11 04:13:37;;;;;;;14.65;6.85;;;14.80;82.60;;;;;;5056145;28;20025;-84
2021/05/11 04:18:36;;;;;;;13.23;6.28;;;14.90;82.20;;;;;;5064930;28;20032;-83
2021/05/11 04:21:02;;;;;;;12.43;6.88;;;14.90;82.10;;;;;;5058891;28;20033;-83
2021/05/11 04:23:27;;;;;;;10.93;5.40;;;14.90;81.80;;;;;;5057179;28;20032;-82
2021/05/11 04:25:53;;;;;;;12.52;5.88;;;14.90;81.50;;;;;;5057427;28;20028;-83
2021/05/11 04:28:18;;;;;;;10.38;5.72;;;14.90;81.50;;;;;;5056758;28;20032;-83
2021/05/11 04:30:44;;;;;;;12.38;6.32;;;14.90;81.40;;;;;;5056794;28;20021;-84
2021/05/11 04:33:11;;;;;;;11.15;5.45;;;14.90;81.30;;;;;;5056455;28;20048;-82
2021/05/11 04:35:39;;;;;;;11.70;6.18;;;14.90;81.30;;;;;;5056155;28;20041;-83
2021/05/11 04:38:05;;;;;;;10.52;5.88;;;14.90;81.20;;;;;;5056276;28;20025;-83
2021/05/11 04:40:30;;;;;;;9.07;5.55;;;14.90;81.20;;;;;;5056035;28;20051;-82
2021/05/11 04:42:57;;;;;;;9.18;4.47;;;14.90;81.00;;;;;;5056161;28;20530;-83
2021/05/11 04:45:25;;;;;;;11.55;6.22;;;14.90;80.80;;;;;;5055699;28;20079;-83
2021/05/11 04:47:53;;;;;;;9.35;5.78;;;14.90;80.80;;;;;;5057879;28;20084;-84
2021/05/11 04:50:21;;;;;;;12.80;6.50;;;14.90;81.00;;;;;;5058016;28;20048;-83
2021/05/11 04:52:47;;;;;;;13.90;7.38;;;14.90;81.20;;;;;;5055791;28;20044;-84
2021/05/11 04:55:17;;;;;;;12.02;5.35;;;14.90;81.10;;;;;;5060086;28;20024;-83
2021/05/11 04:57:43;;;;;;;12.43;6.93;;;14.90;80.90;;;;;;5062060;28;20025;-84
2021/05/11 05:00:14;;;;;;;11.82;6.45;;;14.90;80.80;;;;;;5057012;28;20031;-81
2021/05/11 05:02:47;;;;;;;12.00;5.82;;;14.90;81.00;;;;;;5057791;28;20024;-84
2021/05/11 05:05:15;;;;;;;16.30;6.68;;;14.90;81.20;;;;;;5056694;28;20035;-85
2021/05/11 05:07:41;;;;;;;10.98;6.78;;;14.90;81.30;;;;;;5056492;28;20028;-84
2021/05/11 05:10:09;;;;;;;13.43;7.22;;;14.90;81.10;;;;;;5056739;28;20041;-84
2021/05/11 05:12:35;;;;;;;15.55;7.45;;;14.90;81.30;;;;;;5056145;28;20036;-85
2021/05/11 05:15:03;;;;;;;15.10;7.13;;;14.90;81.50;;;;;;5057036;28;20029;-84
2021/05/11 05:17:28;;;;;;;11.15;6.78;;;14.90;81.60;;;;;;5056588;28;20036;-83
2021/05/11 05:19:54;;;;;;;13.77;6.30;;;14.90;81.80;;;;;;5060739;28;20025;-81
2021/05/11 05:22:20;;;;;;;13.90;6.55;;;14.90;81.70;;;;;;5077741;28;20009;-82
2021/05/11 05:24:57;;;;;;;12.15;6.18;;;15.00;82.00;;;;;;5075858;28;20013;-86
2021/05/11 05:27:37;;;;;;;9.93;6.60;;;14.90;81.80;;;;;;5063647;28;20040;-86
2021/05/11 05:30:06;;;;;;;15.32;8.05;;;15.00;81.90;;;;;;5065041;28;20087;-83
2021/05/11 05:32:32;;;;;;;14.38;7.90;;;15.00;81.80;;;;;;5077564;28;20039;-83
2021/05/11 05:34:58;;;;;;;11.88;5.95;;;15.00;81.90;;;;;;5064409;28;20076;-85
2021/05/11 05:37:23;;;;;;;14.85;6.72;;;15.00;82.00;;;;;;5061720;28;20020;-85
2021/05/11 05:39:56;;;;;;;12.65;6.43;;;15.00;81.70;;;;;;5062336;28;20017;-86
2021/05/11 05:42:21;;;;;;;13.25;6.78;;;15.00;81.90;;;;;;5057345;28;20029;-84
2021/05/11 05:44:47;;;;;;;12.68;6.20;;;15.00;81.80;;;;;;5056140;28;20110;-84
2021/05/11 05:47:12;;;;;;;14.75;7.35;;;15.10;81.90;;;;;;5057954;28;20031;-83
2021/05/11 05:49:46;;;;;;;11.27;6.07;;;15.10;82.30;;;;;;5059473;28;20115;-83
2021/05/11 05:52:23;;;;;;;14.02;6.43;;;15.10;82.30;;;;;;5058436;28;20043;-84
2021/05/11 05:54:49;;;;;;;10.55;6.32;;;15.00;82.90;;;;;;5060658;28;20055;-82
2021/05/11 05:57:15;;;;;;;10.43;6.35;;;15.10;82.70;;;;;;5070939;28;20017;-85
2021/05/11 05:59:44;;;;;;;12.20;6.45;;;15.10;82.60;;;;;;5077194;28;20105;-81
2021/05/11 06:02:16;;;;;;;10.18;5.63;;;15.10;82.40;;;;;;5076905;28;20021;-80
2021/05/11 06:04:42;;;;;;;15.25;6.05;;;15.20;82.50;;;;;;5077140;28;20032;-82
2021/05/11 06:07:08;;;;;;;18.40;7.35;;;15.20;82.50;;;;;;5068190;28;20037;-82
2021/05/11 06:09:34;;;;;;;13.40;7.07;;;15.20;82.40;;;;;;5056819;28;20385;-82
2021/05/11 06:12:26;;;;;;;14.60;6.70;;;15.30;82.50;;;;;;5056236;28;20120;-83
2021/05/11 06:17:35;;;;;;;14.32;6.60;;;15.30;82.50;;;;;;5057995;28;20028;-82
2021/05/11 06:20:04;;;;;;;11.52;6.15;;;15.30;82.60;;;;;;5055817;28;20027;-82
2021/05/11 06:22:29;;;;;;;18.42;7.63;;;15.30;82.80;;;;;;5054556;28;20025;-83
2021/05/11 06:24:55;;;;;;;14.85;6.95;;;15.40;82.90;;;;;;5055776;28;20029;-84
2021/05/11 06:27:21;;;;;;;13.38;7.25;;;15.40;83.10;;;;;;5054842;28;20078;-82
2021/05/11 06:29:48;;;;;;;12.57;6.68;;;15.50;82.50;;;;;;5053999;28;20025;-84
2021/05/11 06:32:14;;;;;;;13.13;6.88;;;15.50;82.20;;;;;;5054718;28;20017;-83
2021/05/11 06:34:45;;;;;;;14.70;6.63;;;15.50;82.70;;;;;;5053910;28;20056;-83
2021/05/11 06:37:29;;;;;;;16.30;8.55;;;15.60;83.10;;;;;;5063851;28;20005;-85
2021/05/11 06:39:57;;;;;;;12.48;7.40;;;15.60;83.10;;;;;;5054407;28;20028;-81
2021/05/11 06:42:23;;;;;;;11.27;6.25;;;15.60;82.90;;;;;;5054961;28;20036;-80
2021/05/11 06:55:06;;;;;;;12.85;7.35;;;15.90;82.20;;;;;;5054858;28;20037;-81
2021/05/11 06:57:32;;;;;;;15.85;7.50;;;16.00;82.50;;;;;;5054704;28;20029;-81
2021/05/11 06:59:57;;;;;;;17.95;7.50;;;16.10;81.70;;;;;;5053022;28;20519;-81
2021/05/11 07:02:23;;;;;;;10.98;6.18;;;16.20;80.60;;;;;;5053482;28;20025;-82
2021/05/11 07:04:52;;;;;;;13.63;6.60;;;16.30;80.50;;;;;;5055267;28;20168;-81
2021/05/11 07:07:24;;;;;;;15.23;7.47;;;16.40;79.70;;;;;;5053817;28;20029;-82
2021/05/11 07:10:07;;;;;;;9.32;5.13;;;16.50;79.40;;;;;;5054796;28;20477;-83
2021/05/11 07:15:23;;;;;;;13.05;6.88;;;16.90;78.00;;;;;;5055607;28;20048;-82
2021/05/11 07:17:48;;;;;;;12.18;6.35;;;17.20;76.70;;;;;;5057990;28;20021;-82
2021/05/11 07:20:14;;;;;;;11.52;6.32;;;17.50;75.00;;;;;;5056135;28;20032;-82
2021/05/11 07:22:39;;;;;;;10.60;5.18;;;17.70;75.30;;;;;;5054326;28;20053;-82
2021/05/11 07:25:11;;;;;;;14.70;6.32;;;18.00;74.70;;;;;;5055294;28;20029;-83
2021/05/11 07:30:14;;;;;;;15.00;6.28;;;18.70;72.20;;;;;;5077284;28;20041;-82
2021/05/11 07:32:40;;;;;;;10.75;5.90;;;18.90;70.90;;;;;;5060240;28;20021;-82
2021/05/11 07:35:07;;;;;;;11.32;6.10;;;19.10;69.10;;;;;;5054493;28;20562;-81
2021/05/11 07:37:32;;;;;;;12.63;5.75;;;19.40;66.40;;;;;;5053338;28;20163;-81
2021/05/11 07:39:59;;;;;;;10.80;5.22;;;19.30;64.70;;;;;;5053240;28;20053;-82
2021/05/11 07:42:24;;;;;;;12.65;6.07;;;19.40;65.40;;;;;;5052303;28;20451;-79
2021/05/11 07:44:53;;;;;;;10.93;5.20;;;19.50;65.20;;;;;;5052563;28;20501;-81
2021/05/11 07:47:31;;;;;;;8.93;4.65;;;19.50;65.00;;;;;;5052718;28;20028;-82
2021/05/11 08:17:00;;;;;;;11.50;4.70;;;19.70;62.60;;;;;;5054686;28;20409;-81
2021/05/11 08:30:00;;;;;;;9.95;6.15;;;19.10;64.50;;;;;;5055456;28;20090;-80
2021/05/11 08:32:26;;;;;;;12.98;6.10;;;19.00;64.50;;;;;;5053085;28;20022;-79
2021/05/11 08:34:52;;;;;;;14.45;5.93;;;18.90;65.00;;;;;;5053017;28;20484;-79
2021/05/11 08:37:18;;;;;;;11.00;5.88;;;18.90;65.20;;;;;;5053960;28;20419;-81
2021/05/11 08:39:51;;;;;;;10.68;5.63;;;18.90;65.20;;;;;;5057578;28;20029;-79
2021/05/11 08:42:19;;;;;;;11.40;6.40;;;18.90;65.50;;;;;;5059213;28;20021;-80
2021/05/11 08:44:45;;;;;;;11.68;6.07;;;18.80;65.70;;;;;;5059375;28;20552;-78
2021/05/11 08:47:14;;;;;;;10.20;6.03;;;18.80;66.30;;;;;;5059199;28;20044;-82
2021/05/11 08:49:43;;;;;;;10.88;5.05;;;18.80;66.30;;;;;;5066173;28;20469;-83
2021/05/11 08:52:23;;;;;;;9.02;5.05;;;18.80;66.60;;;;;;5068130;28;20017;-82
2021/05/11 09:06:21;;;;;;;11.98;7.65;;;18.60;68.10;;;;;;5057476;28;20112;-80
2021/05/11 09:26:08;;;;;;;16.02;7.30;;;18.10;70.40;;;;;;5075510;28;20091;-79
2021/05/11 09:28:38;;;;;;;14.07;7.35;;;18.10;70.60;;;;;;5054551;28;20029;-81
2021/05/11 09:31:27;;;;;;;13.02;6.50;;;18.10;70.50;;;;;;5055112;28;20048;-81
2021/05/11 09:50:53;;;;;;;11.30;7.70;;;18.00;70.90;;;;;;5056052;28;20087;-80
2021/05/11 10:37:53;;;;;;;9.65;4.22;;;20.30;58.90;;;;;;5056422;28;19927;-81
2021/05/11 10:48:29;;;;;;;9.13;3.00;;;21.60;54.70;;;;;;5054980;28;20078;-81
2021/05/11 10:50:58;;;;;;;9.27;2.65;;;21.60;53.30;;;;;;5054157;28;20032;-82
2021/05/11 10:53:45;;;;;;;9.18;2.88;;;21.70;54.80;;;;;;5054766;28;20112;-81
2021/05/11 10:56:42;;;;;;;8.95;2.28;;;22.00;51.80;;;;;;5056150;28;20449;-82
2021/05/11 11:01:57;;;;;;;8.10;2.97;;;22.20;50.40;;;;;;5056300;28;20091;-82
2021/05/11 11:04:32;;;;;;;10.02;3.47;;;22.20;51.30;;;;;;5056484;28;20021;-80
2021/05/11 11:07:00;;;;;;;8.55;2.80;;;22.10;50.90;;;;;;5055078;28;20120;-81
2021/05/11 11:09:30;;;;;;;7.80;3.63;;;21.90;53.00;;;;;;5057900;28;20025;-81
2021/05/11 11:12:05;;;;;;;7.95;4.15;;;21.80;53.20;;;;;;5059945;28;20321;-83
2021/05/11 11:14:42;;;;;;;10.02;4.00;;;21.80;54.60;;;;;;5056699;28;20025;-79
2021/05/11 11:17:11;;;;;;;10.50;3.22;;;21.80;53.20;;;;;;5072044;28;20024;-81
2021/05/11 11:19:37;;;;;;;6.55;1.33;;;21.70;51.80;;;;;;5076122;28;20142;-81
2021/05/11 11:25:06;;;;;;;8.82;3.63;;;21.60;54.20;;;;;;5057513;28;20099;-80
2021/05/11 11:27:33;;;;;;;9.90;3.70;;;21.50;51.70;;;;;;5055783;28;20021;-81
2021/05/11 11:30:04;;;;;;;8.27;3.20;;;21.40;51.40;;;;;;5055969;28;20017;-82
2021/05/11 11:32:30;;;;;;;7.82;3.13;;;21.20;52.30;;;;;;5055544;28;20025;-81
2021/05/11 11:34:59;;;;;;;11.68;4.55;;;21.00;51.80;;;;;;5055225;28;20048;-81
2021/05/11 11:37:30;;;;;;;10.45;4.70;;;20.90;53.50;;;;;;5062033;28;20438;-80
2021/05/11 11:39:59;;;;;;;13.13;4.63;;;20.70;53.20;;;;;;5063507;28;20429;-80
2021/05/11 11:42:36;;;;;;;11.00;4.33;;;20.40;53.70;;;;;;5073233;28;20021;-79
2021/05/11 11:45:04;;;;;;;9.05;3.90;;;20.20;55.50;;;;;;5069050;28;20143;-81
2021/05/11 11:47:32;;;;;;;9.35;3.60;;;20.00;55.20;;;;;;5061474;28;20091;-80
2021/05/11 11:50:05;;;;;;;9.63;3.65;;;19.80;55.50;;;;;;5060667;28;20025;-81
2021/05/11 11:55:13;;;;;;;13.23;4.90;;;19.50;57.20;;;;;;5054702;28;20136;-82
2021/05/11 12:00:34;;;;;;;9.02;2.67;;;19.20;56.70;;;;;;5056264;28;20135;-80
2021/05/11 12:03:04;;;;;;;7.30;1.92;;;19.10;56.50;;;;;;5057278;28;20017;-80
2021/05/11 12:05:36;;;;;;;;;;;18.90;56.90;;;;;;5071739;28;20025;-80
2021/05/11 12:08:40;;;;;;;7.53;2.83;;;18.80;57.10;;;;;;5074249;28;19904;-80
2021/05/11 12:11:08;;;;;;;10.60;2.75;;;18.70;58.80;;;;;;5038277;28;20029;-79
2021/05/11 12:13:35;;;;;;;9.55;2.65;;;18.50;58.70;;;;;;5033995;28;20041;-81
2021/05/11 12:16:18;;;;;;;9.05;4.07;;;18.50;59.00;;;;;;5042662;28;20041;-81
2021/05/11 12:19:05;;;;;;;10.13;3.65;;;18.50;58.80;;;;;;5058271;28;20025;-80
2021/05/11 12:21:36;;;;;;;9.60;3.55;;;18.40;58.80;;;;;;5052986;28;20075;-81
2021/05/11 12:24:03;;;;;;;8.05;3.80;;;18.30;59.50;;;;;;5054057;28;20078;-83
2021/05/11 12:26:28;;;;;;;10.20;3.92;;;18.20;61.60;;;;;;5052963;28;20400;-82
2021/05/11 12:29:48;;;;;;;9.80;4.68;;;18.20;62.30;;;;;;5054561;28;20070;-90
2021/05/11 12:32:24;;;;;;;7.70;3.65;;;18.10;62.70;;;;;;5048556;28;20063;-84
2021/05/11 12:35:04;;;;;;;7.93;4.28;;;18.00;64.00;;;;;;5057341;28;20048;-82
2021/05/11 12:37:46;;;;;;;8.35;3.78;;;18.00;65.60;;;;;;5056337;28;20032;-84
2021/05/11 12:40:27;;;;;;;7.40;3.15;;;17.90;67.10;;;;;;5057264;28;20037;-87
2021/05/11 12:42:57;;;;;;;10.35;3.28;;;17.90;67.80;;;;;;5058068;28;20032;-87
2021/05/11 12:45:24;;;;;;;4.50;1.90;;;17.90;68.90;;;;;;5057132;28;20036;-83
2021/05/11 12:48:00;;;;;;;4.10;1.30;;;17.80;68.90;;;;;;5056867;28;20378;-86
2021/05/11 12:50:29;;;;;;;7.57;3.10;;;17.80;69.10;;;;;;5057322;28;20025;-84
2021/05/11 12:53:01;;;;;;;49.80;8.20;;;17.80;70.70;;;;;;5058856;28;20021;-87
2021/05/11 12:59:02;;;;;;;9.25;5.00;;;17.80;72.30;;;;;;5060294;28;20033;-83
2021/05/11 13:01:34;;;;;;;11.02;5.93;;;17.70;74.20;;;;;;5059096;28;20039;-84
2021/05/11 13:04:59;;;;;;;10.27;6.63;;;17.80;76.40;;;;;;5060001;28;20025;-85
2021/05/11 13:28:41;;;;;;;11.80;7.97;;;17.40;80.40;;;;;;5059639;28;20370;-84
2021/05/11 13:31:28;;;;;;;12.70;5.50;;;17.50;80.80;;;;;;5058072;28;20068;-84
2021/05/11 13:36:31;;;;;;;18.70;6.13;;;17.50;80.00;;;;;;5057154;28;20175;-85
2021/05/11 13:38:57;;;;;;;12.18;6.60;;;17.50;79.20;;;;;;5057589;28;20064;-85
2021/05/11 13:41:22;;;;;;;10.30;6.13;;;17.50;79.70;;;;;;5056335;28;20018;-85
2021/05/11 13:43:48;;;;;;;15.05;7.10;;;17.50;79.50;;;;;;5059916;28;20017;-85
2021/05/11 13:46:14;;;;;;;13.65;4.88;;;17.50;79.30;;;;;;5061300;28;20033;-87
2021/05/11 13:48:42;;;;;;;10.85;4.18;;;17.50;79.10;;;;;;5074154;28;20013;-85
2021/05/11 13:53:41;;;;;;;9.40;4.10;;;17.40;78.50;;;;;;5062821;28;20033;-84
2021/05/11 14:04:06;;;;;;;6.72;2.42;;;17.20;78.30;;;;;;5060064;28;20036;-86
2021/05/11 14:06:31;;;;;;;9.75;5.05;;;17.10;77.40;;;;;;5064583;28;20120;-84
2021/05/11 14:08:57;;;;;;;6.47;3.70;;;17.10;77.30;;;;;;5077218;28;20005;-87
2021/05/11 14:11:23;;;;;;;12.35;4.70;;;17.00;77.80;;;;;;5076493;28;20068;-86
2021/05/11 14:13:49;;;;;;;12.32;6.07;;;17.00;78.10;;;;;;5077951;28;20013;-86
2021/05/11 14:16:14;;;;;;;13.63;7.22;;;17.00;79.10;;;;;;5075216;28;20044;-86
2021/05/11 14:18:40;;;;;;;12.63;5.60;;;16.90;80.00;;;;;;5064816;28;20271;-85
2021/05/11 14:21:06;;;;;;;10.57;6.07;;;16.90;80.50;;;;;;5060395;28;20127;-85
2021/05/11 14:23:33;;;;;;;10.38;6.22;;;16.90;80.40;;;;;;5059977;28;20039;-86
2021/05/11 14:26:02;;;;;;;14.02;7.85;;;16.80;81.60;;;;;;5058267;28;20044;-84
2021/05/11 14:28:31;;;;;;;12.70;6.53;;;16.80;81.70;;;;;;5057166;28;20029;-89
2021/05/11 14:30:56;;;;;;;21.75;8.25;;;16.80;81.30;;;;;;5058930;28;20409;-85
2021/05/11 14:33:22;;;;;;;16.95;8.48;;;16.90;82.30;;;;;;5367107;22;20045;-85
2021/05/11 14:35:50;;;;;;;12.50;8.13;;;16.90;83.00;;;;;;5022078;28;20077;-85
2021/05/11 14:38:28;;;;;;;11.82;8.10;;;16.90;83.50;;;;;;5025970;28;20018;-85
2021/05/11 14:41:01;;;;;;;15.18;8.77;;;16.90;82.30;;;;;;5021312;28;20101;-85
2021/05/11 14:43:27;;;;;;;16.63;9.10;;;16.90;82.60;;;;;;5015921;28;20531;-85
2021/05/11 14:45:58;;;;;;;12.93;8.15;;;16.90;82.90;;;;;;5020108;28;20029;-84
2021/05/11 14:48:24;;;;;;;12.38;6.28;;;16.90;82.60;;;;;;5015713;28;20029;-85
2021/05/11 14:50:49;;;;;;;9.65;5.28;;;16.90;81.80;;;;;;5015407;28;20281;-85
2021/05/11 14:53:15;;;;;;;9.38;6.35;;;16.90;80.80;;;;;;5013805;28;20014;-85
2021/05/11 14:55:41;;;;;;;12.82;7.95;;;16.90;81.30;;;;;;5015348;28;20037;-85
2021/05/11 14:58:06;;;;;;;14.10;8.38;;;16.90;83.20;;;;;;5015423;28;20029;-85
2021/05/11 15:00:32;;;;;;;12.32;7.05;;;16.90;82.80;;;;;;5015690;28;20026;-85
2021/05/11 15:02:57;;;;;;;15.68;9.85;;;16.90;82.90;;;;;;5018907;28;20014;-84
2021/05/11 15:05:23;;;;;;;13.77;9.73;;;16.90;83.50;;;;;;5032757;28;20069;-85
2021/05/11 15:07:49;;;;;;;17.67;11.00;;;16.90;84.30;;;;;;5035260;28;20021;-84
2021/05/11 15:10:15;;;;;;;13.65;9.57;;;16.90;84.20;;;;;;5035516;28;20030;-84
2021/05/11 15:12:41;;;;;;;13.68;8.98;;;16.90;83.20;;;;;;5024364;28;20029;-84
2021/05/11 15:15:13;;;;;;;12.63;9.45;;;16.90;82.90;;;;;;5020447;28;20034;-84
2021/05/11 15:20:31;;;;;;;12.77;8.43;;;16.80;82.80;;;;;;5034240;28;20069;-85
2021/05/11 15:23:15;;;;;;;12.77;8.13;;;16.80;82.80;;;;;;5034673;28;20053;-83
2021/05/11 15:28:45;;;;;;;12.40;8.73;;;16.80;83.20;;;;;;5030119;28;20056;-84
2021/05/11 15:37:37;;;;;;;19.23;15.30;;;16.70;85.10;;;;;;5019259;28;20159;-84
2021/05/11 15:51:47;;;;;;;17.40;14.95;;;16.70;85.50;;;;;;5024471;28;20037;-85
2021/05/11 15:57:35;;;;;;;16.70;14.40;;;16.70;84.10;;;;;;5037843;28;20141;-87
2021/05/11 16:00:01;;;;;;;17.27;14.13;;;16.70;84.00;;;;;;5031728;28;20030;-88
2021/05/11 16:02:27;;;;;;;17.17;14.15;;;16.70;85.00;;;;;;5022041;28;20132;-86
2021/05/11 16:05:09;;;;;;;15.43;12.38;;;16.70;85.10;;;;;;5025231;28;20093;-88
2021/05/11 16:13:26;;;;;;;17.58;13.55;;;16.70;84.90;;;;;;5040014;28;20064;-90
2021/05/11 16:16:11;;;;;;;20.35;14.68;;;16.60;85.20;;;;;;5040340;28;20482;-89
2021/05/11 16:18:39;;;;;;;22.23;16.27;;;16.60;85.80;;;;;;5037941;28;20034;-89
2021/05/11 16:24:28;;;;;;;20.02;15.00;;;16.60;86.40;;;;;;5024119;28;20037;-88
2021/05/11 16:26:57;;;;;;;20.25;15.95;;;16.60;86.00;;;;;;5022868;28;20032;-88
2021/05/11 16:33:08;;;;;;;20.45;15.65;;;16.60;86.00;;;;;;5026307;28;20037;-88
2021/05/11 16:35:35;;;;;;;17.35;15.18;;;16.60;86.00;;;;;;5026600;28;20038;-86
2021/05/11 16:38:38;;;;;;;16.33;14.50;;;16.60;86.00;;;;;;5027577;28;20018;-88
2021/05/11 16:41:05;;;;;;;20.77;15.38;;;16.60;85.90;;;;;;5023051;28;20026;-88
2021/05/11 16:43:31;;;;;;;19.70;14.95;;;16.60;86.20;;;;;;5020914;28;20022;-88
2021/05/11 16:46:02;;;;;;;18.05;14.73;;;16.60;86.60;;;;;;5022964;28;20045;-88
2021/05/11 16:48:46;;;;;;;20.02;15.20;;;16.60;86.90;;;;;;5022185;28;20033;-88
2021/05/11 16:51:12;;;;;;;21.20;15.68;;;16.60;87.80;;;;;;5025756;28;20022;-87
2021/05/11 16:53:41;;;;;;;19.52;16.13;;;16.50;87.10;;;;;;5024804;28;20040;-88
2021/05/11 16:56:07;;;;;;;22.15;15.27;;;16.40;87.60;;;;;;5023584;28;20041;-88
2021/05/11 16:58:52;;;;;;;23.17;15.80;;;16.40;87.40;;;;;;5023191;28;20033;-89
2021/05/11 17:04:40;;;;;;;17.70;14.68;;;16.40;88.00;;;;;;5040266;28;20064;-89
2021/05/11 17:15:41;;;;;;;20.15;15.15;;;16.30;87.90;;;;;;5019195;28;20525;-87
2021/05/11 17:18:25;;;;;;;17.65;14.18;;;16.40;88.20;;;;;;5018612;28;20033;-88
2021/05/11 17:21:10;;;;;;;19.20;15.07;;;16.40;88.10;;;;;;5019361;28;20026;-87
2021/05/11 17:23:55;;;;;;;20.08;15.82;;;16.40;87.60;;;;;;5018606;28;20029;-87
2021/05/11 17:26:21;;;;;;;21.25;16.13;;;16.40;88.00;;;;;;5017915;28;20458;-86
2021/05/11 17:28:48;;;;;;;19.50;14.15;;;16.50;87.80;;;;;;5016713;28;20029;-87
2021/05/11 17:31:14;;;;;;;18.05;13.55;;;16.40;87.40;;;;;;5017355;28;20426;-86
2021/05/11 17:33:58;;;;;;;20.73;15.60;;;16.40;87.00;;;;;;5018153;28;20069;-85
2021/05/11 17:37:01;;;;;;;18.88;14.30;;;16.40;87.00;;;;;;5019337;28;20041;-88
2021/05/11 17:42:30;;;;;;;20.73;15.77;;;16.40;86.80;;;;;;5019916;28;20033;-87
2021/05/11 17:45:14;;;;;;;18.55;15.88;;;16.40;87.20;;;;;;5019459;28;20025;-86
2021/05/11 17:51:03;;;;;;;22.00;15.70;;;16.40;88.00;;;;;;5024431;28;20087;-86
2021/05/11 17:53:29;;;;;;;20.17;15.35;;;16.30;87.40;;;;;;5018959;28;20026;-89
2021/05/11 17:55:55;;;;;;;20.33;16.00;;;16.30;88.10;;;;;;5020239;28;20437;-85
2021/05/11 18:01:05;;;;;;;19.83;16.92;;;16.30;88.70;;;;;;5038018;28;20061;-87
2021/05/11 18:03:50;;;;;;;21.25;16.00;;;16.30;89.20;;;;;;5036263;28;20014;-87
2021/05/11 18:06:34;;;;;;;24.17;17.42;;;16.30;89.40;;;;;;5024284;28;20406;-87
2021/05/11 18:08:59;;;;;;;18.25;15.20;;;16.20;89.20;;;;;;5020461;28;20022;-87